Time;durP1;ratioP1;P1;durP2;ratioP2;P2;SDS_P1;SDS_P2;PMS_P1;PMS_P2;Temp;Humidity;BMP_temperature;BMP_pressure;BME280_temperature;BME280_humidity;BME280_pressure;Samples;Min_cycle;Max_cycle;Signal;HPM_P1;HPM_P2
2021/08/11 00:01:37;;;;;;;;;4.00;4.00;;;;;23.37;51.65;101361.63;5056501;28;45363;-52
2021/08/11 00:04:03;;;;;;;;;3.25;3.25;;;;;23.36;52.11;101365.19;5056548;28;45417;-59
2021/08/11 00:06:28;;;;;;;;;4.25;4.25;;;;;23.37;51.90;101376.66;5056765;28;45398;-60
2021/08/11 00:08:53;;;;;;;;;2.75;2.75;;;;;23.36;51.56;101374.94;5056575;28;45309;-49
2021/08/11 00:11:19;;;;;;;;;4.00;2.75;;;;;23.36;51.73;101375.78;5056581;28;45291;-52
2021/08/11 00:13:44;;;;;;;;;3.25;3.00;;;;;23.37;51.69;101379.28;5056413;28;45231;-45
2021/08/11 00:16:10;;;;;;;;;2.00;2.00;;;;;23.36;52.01;101378.41;5056435;28;45178;-45
2021/08/11 00:18:36;;;;;;;;;3.25;3.00;;;;;23.35;51.89;101379.34;5056139;28;45256;-45
2021/08/11 00:21:02;;;;;;;;;3.00;3.00;;;;;23.34;52.46;101374.16;5056296;28;45308;-47
2021/08/11 00:23:27;;;;;;;;;3.75;3.75;;;;;23.34;52.12;101372.38;5056245;28;45404;-51
2021/08/11 00:25:54;;;;;;;;;4.25;3.00;;;;;23.36;52.12;101383.72;5056777;28;45315;-49
2021/08/11 00:28:20;;;;;;;;;4.00;3.00;;;;;23.34;52.23;101382.94;5056169;28;46913;-48
2021/08/11 00:30:46;;;;;;;;;2.75;2.75;;;;;23.34;52.10;101380.31;5056151;28;45358;-45
2021/08/11 00:33:11;;;;;;;;;3.00;3.00;;;;;23.35;52.02;101381.16;5038221;28;45394;-50
2021/08/11 00:35:36;;;;;;;;;4.00;4.00;;;;;23.34;52.02;101377.66;5056511;28;45394;-49
2021/08/11 00:38:01;;;;;;;;;4.00;3.00;;;;;23.36;52.10;101385.53;5055860;28;45377;-53
2021/08/11 00:40:30;;;;;;;;;3.00;3.00;;;;;23.36;52.05;101377.59;5055979;28;45550;-45
2021/08/11 00:42:56;;;;;;;;;2.25;2.25;;;;;23.35;51.98;101395.22;5056165;28;45392;-49
2021/08/11 00:45:21;;;;;;;;;3.00;3.00;;;;;23.35;52.04;101389.94;5056575;28;45223;-45
2021/08/11 00:47:50;;;;;;;;;3.50;3.50;;;;;23.36;52.12;101402.22;5055799;28;46230;-55
2021/08/11 00:50:15;;;;;;;;;3.00;3.00;;;;;23.35;51.92;101397.88;5055881;28;45295;-56
2021/08/11 00:52:41;;;;;;;;;5.25;2.00;;;;;23.36;52.32;101402.22;5055969;28;45373;-47
2021/08/11 00:55:07;;;;;;;;;4.00;4.00;;;;;23.36;52.12;101402.22;5056126;28;45583;-50
2021/08/11 00:57:33;;;;;;;;;3.00;3.00;;;;;23.36;52.41;101407.50;5055707;28;46504;-49
2021/08/11 01:00:00;;;;;;;;;3.00;3.00;;;;;23.36;52.51;101406.69;5055648;28;45251;-46
2021/08/11 01:02:26;;;;;;;;;3.75;3.75;;;;;23.36;52.06;101412.81;5056251;28;45300;-48
2021/08/11 01:04:55;;;;;;;;;3.75;3.00;;;;;23.34;51.89;101404.09;5059955;28;45166;-46
2021/08/11 01:07:22;;;;;;;;;3.00;3.00;;;;;23.37;52.41;101409.22;5058984;28;47355;-60
2021/08/11 01:09:49;;;;;;;;;2.25;2.25;;;;;23.36;52.18;101407.50;5059348;28;45689;-45
2021/08/11 01:12:14;;;;;;;;;3.75;3.75;;;;;23.36;52.19;101406.69;5059341;28;45442;-50
2021/08/11 01:14:41;;;;;;;;;5.00;4.25;;;;;23.37;52.04;101403.09;5059361;28;45412;-52
2021/08/11 01:17:06;;;;;;;;;2.25;2.25;;;;;23.36;52.11;101402.22;5059093;28;46535;-50
2021/08/11 01:19:32;;;;;;;;;4.25;4.25;;;;;23.35;52.49;101400.53;5058926;28;48973;-46
2021/08/11 01:22:09;;;;;;;;;3.00;3.00;;;;;23.36;52.36;101393.44;5058937;28;45466;-48
2021/08/11 01:24:48;;;;;;;;;4.00;4.00;;;;;23.37;52.25;101392.50;5059339;28;45323;-57
2021/08/11 01:27:45;;;;;;;;;4.00;4.00;;;;;23.36;51.98;101385.53;5058782;28;45430;-47
2021/08/11 01:30:18;;;;;;;;;3.00;3.00;;;;;23.35;52.19;101389.09;5058765;28;45841;-52
2021/08/11 01:32:49;;;;;;;;;3.25;3.25;;;;;23.36;52.35;101380.22;5058935;28;45414;-51
2021/08/11 01:35:18;;;;;;;;;4.00;4.00;;;;;23.35;52.35;101381.16;5059023;28;45379;-44
2021/08/11 01:37:49;;;;;;;;;3.50;3.00;;;;;23.35;52.53;101379.34;5058488;28;47023;-45
2021/08/11 01:40:21;;;;;;;;;3.75;3.75;;;;;23.35;52.37;101383.81;5058667;28;45389;-51
2021/08/11 01:42:48;;;;;;;;;4.00;4.00;;;;;23.35;52.09;101381.16;5058617;28;45288;-46
2021/08/11 01:45:21;;;;;;;;;3.00;2.75;;;;;23.35;52.29;101381.16;5059036;28;45390;-47
2021/08/11 01:48:00;;;;;;;;;4.00;3.75;;;;;23.35;52.30;101379.34;5058268;28;47344;-57
2021/08/11 01:50:29;;;;;;;;;5.75;4.00;;;;;23.34;52.37;101377.66;5058945;28;45470;-45
2021/08/11 01:52:57;;;;;;;;;4.00;4.00;;;;;23.34;52.20;101371.53;5058908;28;45256;-45
2021/08/11 01:55:23;;;;;;;;;5.75;4.50;;;;;23.33;52.27;101373.31;5058750;28;45636;-49
2021/08/11 01:57:51;;;;;;;;;3.50;3.50;;;;;23.34;52.14;101364.44;5058274;28;45502;-50
2021/08/11 02:00:18;;;;;;;;;3.00;3.00;;;;;23.33;52.56;101362.72;5058172;28;45362;-51
2021/08/11 02:02:46;;;;;;;;;2.75;2.75;;;;;23.32;52.35;101361.00;5058497;28;45263;-50
2021/08/11 02:05:13;;;;;;;;;3.75;3.75;;;;;23.33;52.17;101365.38;5058596;28;45613;-48
2021/08/11 02:07:39;;;;;;;;;3.75;3.75;;;;;23.33;51.69;101362.72;5058233;28;46546;-46
2021/08/11 02:10:07;;;;;;;;;4.00;4.00;;;;;23.32;51.98;101358.38;5058051;28;45319;-47
2021/08/11 02:12:32;;;;;;;;;3.75;3.75;;;;;23.33;52.20;101369.81;5058157;28;45363;-44
2021/08/11 02:14:59;;;;;;;;;3.75;3.00;;;;;23.32;51.62;101366.31;5058222;28;45564;-52
2021/08/11 02:17:24;;;;;;;;;3.00;3.00;;;;;23.31;51.69;101362.81;5058079;28;46248;-57
2021/08/11 02:19:50;;;;;;;;;4.00;4.00;;;;;23.31;51.79;101360.19;5023558;28;45520;-51
2021/08/11 02:22:16;;;;;;;;;4.25;4.25;;;;;23.31;51.63;101356.69;5057872;28;45562;-44
2021/08/11 02:24:41;;;;;;;;;3.25;3.25;;;;;23.30;51.89;101355.84;5058213;28;45417;-48
2021/08/11 02:27:23;;;;;;;;;3.50;3.50;;;;;23.30;51.54;101353.19;5057807;28;45533;-51
2021/08/11 02:30:13;;;;;;;;;5.75;3.00;;;;;23.30;51.69;101355.84;5057901;28;45719;-57
2021/08/11 02:32:48;;;;;;;;;3.00;3.00;;;;;23.30;51.75;101362.94;5057922;28;45413;-56
2021/08/11 02:35:25;;;;;;;;;4.00;3.25;;;;;23.30;51.43;101360.28;5057904;28;45395;-62
2021/08/11 02:38:07;;;;;;;;;4.00;4.00;;;;;23.30;51.67;101362.94;5057796;28;46339;-56
2021/08/11 02:40:51;;;;;;;;;4.25;3.25;;;;;23.28;51.55;101349.78;5039722;28;45547;-60
2021/08/11 02:43:27;;;;;;;;;5.50;3.75;;;;;23.29;51.60;101353.28;5057873;28;45319;-60
2021/08/11 02:46:02;;;;;;;;;3.00;3.00;;;;;23.28;51.56;101357.72;5058086;28;45506;-54
2021/08/11 02:48:29;;;;;;;;;2.50;2.50;;;;;23.28;51.15;101352.41;5057624;28;46286;-61
2021/08/11 02:50:55;;;;;;;;;3.00;3.00;;;;;23.28;51.12;101352.41;5057566;28;45452;-59
2021/08/11 02:53:23;;;;;;;;;2.75;2.50;;;;;23.27;51.55;101349.88;5057689;28;45330;-61
2021/08/11 02:55:49;;;;;;;;;3.00;3.00;;;;;23.27;51.38;101353.34;5057783;28;45243;-60
2021/08/11 02:58:17;;;;;;;;;4.00;2.00;;;;;23.27;51.37;101356.00;5057365;28;46474;-44
2021/08/11 03:00:42;;;;;;;;;4.00;4.00;;;;;23.28;51.29;101354.22;5057372;28;45188;-49
2021/08/11 03:03:08;;;;;;;;;2.50;2.50;;;;;23.27;51.33;101357.81;5057666;28;45412;-54
2021/08/11 03:05:34;;;;;;;;;3.75;3.00;;;;;23.26;50.98;101359.59;5057831;28;45414;-57
2021/08/11 03:08:00;;;;;;;;;2.50;2.50;;;;;23.25;51.43;101357.91;5057564;28;46451;-62
2021/08/11 03:10:26;;;;;;;;;2.00;2.00;;;;;23.27;51.52;101357.81;5057191;28;45418;-59
2021/08/11 03:12:52;;;;;;;;;3.00;3.00;;;;;23.25;50.77;101352.63;5057299;28;45451;-52
2021/08/11 03:15:19;;;;;;;;;2.75;2.00;;;;;23.26;51.23;101348.16;5039395;28;45541;-59
2021/08/11 03:17:45;;;;;;;;;2.25;2.25;;;;;23.23;51.06;101348.34;5057046;28;45363;-63
2021/08/11 03:20:11;;;;;;;;;3.00;3.00;;;;;23.26;51.21;101348.16;5038927;28;45599;-53
2021/08/11 03:22:36;;;;;;;;;3.50;2.00;;;;;23.25;50.91;101357.91;5057210;28;45339;-57
2021/08/11 03:25:02;;;;;;;;;2.00;2.00;;;;;23.25;51.12;101362.34;5057033;28;45216;-48
2021/08/11 03:27:27;;;;;;;;;2.00;2.00;;;;;23.25;50.79;101359.69;5056522;28;46608;-48
2021/08/11 03:29:53;;;;;;;;;2.00;2.00;;;;;23.24;50.52;101360.63;5057028;28;45395;-45
2021/08/11 03:32:18;;;;;;;;;2.00;2.00;;;;;23.24;50.94;101365.91;5057176;28;45243;-50
2021/08/11 03:34:43;;;;;;;;;3.00;3.00;;;;;23.22;50.67;101367.78;5057054;28;45788;-45
2021/08/11 03:37:13;;;;;;;;;2.50;2.50;;;;;23.24;50.60;101369.44;5056892;28;46457;-48
2021/08/11 03:39:38;;;;;;;;;3.00;3.00;;;;;23.24;50.48;101371.19;5056808;28;45603;-46
2021/08/11 03:42:04;;;;;;;;;2.00;2.00;;;;;23.24;51.14;101365.91;5057227;28;45663;-51
2021/08/11 03:44:29;;;;;;;;;3.00;3.00;;;;;23.22;50.55;101373.06;5057381;28;45668;-48
2021/08/11 03:46:54;;;;;;;;;2.00;2.00;;;;;23.23;50.45;101380.94;5056637;28;45978;-47
2021/08/11 03:49:20;;;;;;;;;3.00;3.00;;;;;23.24;50.63;101376.50;5056586;28;45559;-48
2021/08/11 03:51:45;;;;;;;;;1.75;1.75;;;;;23.23;50.81;101380.94;5056774;28;45245;-45
2021/08/11 03:54:11;;;;;;;;;2.50;2.50;;;;;23.23;50.43;101380.94;5056904;28;45249;-49
2021/08/11 03:56:36;;;;;;;;;3.50;2.50;;;;;23.23;50.85;101385.38;5056235;28;53932;-47
2021/08/11 03:59:01;;;;;;;;;4.00;4.00;;;;;23.22;51.00;101379.25;5056720;28;45355;-47
2021/08/11 04:01:27;;;;;;;;;3.75;3.75;;;;;23.21;50.71;101374.03;5056689;28;45581;-51
2021/08/11 04:03:52;;;;;;;;;2.00;2.00;;;;;23.23;50.85;101390.66;5056847;28;45225;-50
2021/08/11 04:06:18;;;;;;;;;3.00;3.00;;;;;23.22;50.51;101388.94;5056457;28;45370;-53
2021/08/11 04:08:43;;;;;;;;;2.00;2.00;;;;;23.22;51.01;101392.47;5056414;28;45401;-45
2021/08/11 04:11:08;;;;;;;;;4.00;4.00;;;;;23.21;50.81;101381.94;5056536;28;45328;-44
2021/08/11 04:13:34;;;;;;;;;3.00;3.00;;;;;23.22;50.73;101383.66;5056856;28;45645;-52
2021/08/11 04:15:59;;;;;;;;;4.00;3.75;;;;;23.22;51.06;101381.88;5056156;28;46531;-52
2021/08/11 04:18:24;;;;;;;;;3.00;3.00;;;;;23.22;50.64;101386.31;5056240;28;45489;-51
2021/08/11 04:20:50;;;;;;;;;3.00;2.00;;;;;23.22;50.67;101394.22;5056539;28;45350;-59
2021/08/11 04:23:15;;;;;;;;;2.00;2.00;;;;;23.21;50.61;101389.88;5056253;28;45381;-55
2021/08/11 04:25:41;;;;;;;;;4.00;3.00;;;;;23.20;50.56;101390.84;5038069;28;47795;-49
2021/08/11 04:28:08;;;;;;;;;2.00;2.00;;;;;23.15;50.46;101381.34;5055977;28;45826;-47
2021/08/11 04:30:34;;;;;;;;;3.00;2.00;;;;;23.21;50.80;101392.53;5038682;28;45361;-49
2021/08/11 04:32:59;;;;;;;;;3.00;3.00;;;;;23.21;50.87;101387.25;5056401;28;45359;-45
2021/08/11 04:35:25;;;;;;;;;3.00;2.00;;;;;23.21;50.71;101387.25;5055971;28;46408;-48
2021/08/11 04:37:50;;;;;;;;;3.00;2.00;;;;;23.20;51.17;101390.84;5058186;28;45270;-56
2021/08/11 04:40:15;;;;;;;;;2.75;2.75;;;;;23.21;50.57;101397.81;5059802;28;45288;-53
2021/08/11 04:42:41;;;;;;;;;3.75;3.00;;;;;23.22;50.53;101396.88;5059804;28;45493;-55
2021/08/11 04:45:08;;;;;;;;;1.50;1.50;;;;;23.21;50.76;101392.53;5059852;28;46522;-52
2021/08/11 04:47:33;;;;;;;;;2.00;2.00;;;;;23.20;50.68;101398.78;5041933;28;45387;-61
2021/08/11 04:49:58;;;;;;;;;2.00;2.00;;;;;23.19;50.69;101397.91;5059808;28;45367;-58
2021/08/11 04:52:24;;;;;;;;;2.75;1.75;;;;;23.19;50.57;101397.91;5059661;28;45449;-53
2021/08/11 04:54:49;;;;;;;;;2.00;2.00;;;;;23.19;50.69;101397.06;5059272;28;46968;-48
2021/08/11 04:57:14;;;;;;;;;1.75;1.75;;;;;23.20;50.65;101398.78;5059184;28;48532;-52
2021/08/11 04:59:40;;;;;;;;;2.25;2.25;;;;;23.19;50.55;101404.97;5059483;28;45330;-56
2021/08/11 05:02:05;;;;;;;;;1.00;1.00;;;;;23.19;50.75;101389.13;5059762;28;45403;-51
2021/08/11 05:04:30;;;;;;;;;3.00;2.00;;;;;23.20;50.54;101396.16;5059220;28;45327;-54
2021/08/11 05:06:56;;;;;;;;;2.00;1.00;;;;;23.20;50.35;101402.28;5059028;28;45451;-55
2021/08/11 05:09:22;;;;;;;;;2.00;2.00;;;;;23.20;50.41;101401.44;5059296;28;45273;-46
2021/08/11 05:11:48;;;;;;;;;4.00;3.00;;;;;23.20;50.65;101406.72;5059420;28;45624;-51
2021/08/11 05:14:13;;;;;;;;;3.50;2.00;;;;;23.20;50.36;101404.06;5059066;28;46437;-46
2021/08/11 05:16:38;;;;;;;;;2.75;2.00;;;;;23.20;50.71;101422.59;5040798;28;45966;-44
2021/08/11 05:19:04;;;;;;;;;3.00;3.00;;;;;23.21;50.80;101418.97;5059444;28;45402;-53
2021/08/11 05:21:30;;;;;;;;;3.00;2.00;;;;;23.19;50.70;101411.13;5059169;28;45962;-47
2021/08/11 05:23:56;;;;;;;;;2.25;2.25;;;;;23.21;50.34;101413.69;5058881;28;46062;-45
2021/08/11 05:26:21;;;;;;;;;2.75;1.75;;;;;23.22;50.38;101425.97;5058769;28;45191;-45
2021/08/11 05:28:47;;;;;;;;;2.25;2.25;;;;;23.16;50.55;101409.50;5058312;28;45332;-55
2021/08/11 05:31:13;;;;;;;;;2.25;2.00;;;;;23.17;50.59;101413.84;5059099;28;45336;-46
2021/08/11 05:33:39;;;;;;;;;4.25;3.00;;;;;23.22;50.40;101428.63;5041120;28;46104;-48
2021/08/11 05:36:04;;;;;;;;;2.75;2.75;;;;;23.21;50.44;101421.63;5058935;28;45332;-49
2021/08/11 05:38:30;;;;;;;;;2.00;2.00;;;;;23.22;50.54;101426.84;5058747;28;45418;-46
2021/08/11 05:40:55;;;;;;;;;3.00;3.00;;;;;23.21;50.84;101429.56;5059020;28;45302;-48
2021/08/11 05:43:21;;;;;;;;;2.00;1.75;;;;;23.16;51.01;101432.44;5058610;28;46437;-46
2021/08/11 05:45:46;;;;;;;;;5.25;3.00;;;;;23.12;51.55;101430.91;5040676;28;45898;-51
2021/08/11 05:48:12;;;;;;;;;0.00;0.00;;;;;23.11;51.23;101435.34;5057945;28;45296;-50
2021/08/11 05:50:37;;;;;;;;;4.00;4.00;;;;;23.08;51.74;101440.81;5058804;28;45395;-51
2021/08/11 05:53:03;;;;;;;;;3.00;3.00;;;;;23.05;51.65;101435.69;5058481;28;45330;-54
2021/08/11 05:55:28;;;;;;;;;4.25;4.00;;;;;23.04;51.69;101444.56;5058430;28;45332;-50
2021/08/11 05:57:54;;;;;;;;;4.00;4.00;;;;;23.02;52.01;101446.44;5040433;28;45398;-59
2021/08/11 06:00:19;;;;;;;;;2.75;2.75;;;;;23.00;52.20;101448.31;5058643;28;45688;-51
2021/08/11 06:02:44;;;;;;;;;3.00;3.00;;;;;22.96;51.88;101445.00;5058347;28;45329;-57
2021/08/11 06:05:10;;;;;;;;;4.00;3.00;;;;;22.97;52.41;101448.50;5058623;28;45190;-53
2021/08/11 06:07:37;;;;;;;;;3.00;3.00;;;;;22.95;52.52;101450.38;5058468;28;45371;-56
2021/08/11 06:10:04;;;;;;;;;4.50;3.00;;;;;22.93;52.38;101452.25;5058538;28;45581;-50
2021/08/11 06:12:29;;;;;;;;;2.00;2.00;;;;;22.92;52.98;101455.81;5058127;28;46377;-56
2021/08/11 06:14:55;;;;;;;;;2.00;2.00;;;;;22.90;52.41;101463.84;5058047;28;45257;-49
2021/08/11 06:17:20;;;;;;;;;4.50;3.25;;;;;22.88;52.47;101459.56;5058235;28;45358;-56
2021/08/11 06:19:47;;;;;;;;;4.00;2.75;;;;;22.90;52.85;101462.97;5058336;28;45451;-50
2021/08/11 06:22:13;;;;;;;;;2.00;2.00;;;;;22.90;52.60;101460.34;5058011;28;45324;-47
2021/08/11 06:24:38;;;;;;;;;2.00;2.00;;;;;22.88;52.50;101459.56;5058320;28;45328;-54
2021/08/11 06:27:03;;;;;;;;;3.00;2.25;;;;;22.88;52.79;101456.94;5058339;28;45434;-54
2021/08/11 06:29:29;;;;;;;;;2.25;2.25;;;;;22.87;52.85;101460.53;5058266;28;45499;-48
2021/08/11 06:31:54;;;;;;;;;4.00;3.00;;;;;22.87;53.33;101465.81;5057752;28;46947;-54
2021/08/11 06:34:19;;;;;;;;;3.50;2.00;;;;;22.86;53.00;101464.94;5057861;28;45363;-49
2021/08/11 06:36:45;;;;;;;;;2.50;2.50;;;;;22.87;53.36;101464.00;5057853;28;45560;-55
2021/08/11 06:39:10;;;;;;;;;3.00;3.00;;;;;22.89;53.09;101470.06;5058393;28;45225;-61
2021/08/11 06:41:35;;;;;;;;;4.00;4.00;;;;;22.89;53.28;101471.84;5057792;28;45270;-55
2021/08/11 06:44:01;;;;;;;;;3.50;3.50;;;;;22.87;53.56;101465.81;5057659;28;45379;-57
2021/08/11 06:46:26;;;;;;;;;3.25;3.00;;;;;22.87;53.31;101473.75;5057812;28;45292;-57
2021/08/11 06:48:53;;;;;;;;;3.75;3.75;;;;;22.89;53.34;101471.84;5057866;28;45306;-50
2021/08/11 06:51:18;;;;;;;;;4.75;4.25;;;;;22.89;53.56;101463.91;5056061;28;46307;-56
2021/08/11 06:53:44;;;;;;;;;3.50;3.50;;;;;22.89;53.36;101463.91;5057606;28;45365;-54
2021/08/11 06:56:09;;;;;;;;;5.75;4.00;;;;;22.91;53.66;101462.06;5058066;28;45307;-56
2021/08/11 06:58:36;;;;;;;;;4.00;4.00;;;;;22.93;53.43;101462.81;5057721;28;45285;-57
2021/08/11 07:01:02;;;;;;;;;7.00;5.00;;;;;22.90;53.45;101463.84;5057356;28;46470;-54
2021/08/11 07:03:27;;;;;;;;;4.75;4.75;;;;;22.93;53.39;101465.47;5057294;28;45342;-50
2021/08/11 07:05:52;;;;;;;;;5.00;4.75;;;;;22.94;53.26;101464.53;5057484;28;45475;-51
2021/08/11 07:08:20;;;;;;;;;6.00;5.00;;;;;22.94;53.46;101456.59;5057670;28;45369;-45
2021/08/11 07:10:45;;;;;;;;;6.00;5.00;;;;;22.95;52.84;101455.66;5057162;28;46958;-47
2021/08/11 07:13:11;;;;;;;;;4.50;4.50;;;;;22.96;53.23;101462.66;5057613;28;45316;-50
2021/08/11 07:15:36;;;;;;;;;7.00;7.00;;;;;22.97;53.13;101459.91;5057239;28;45470;-57
2021/08/11 07:18:01;;;;;;;;;6.00;4.25;;;;;22.98;53.14;101460.78;5057538;28;45154;-53
2021/08/11 07:20:30;;;;;;;;;6.75;4.00;;;;;23.00;52.92;101472.09;5056943;28;45327;-53
2021/08/11 07:22:58;;;;;;;;;5.50;5.50;;;;;23.00;53.27;101472.97;5056963;28;45367;-54
2021/08/11 07:25:23;;;;;;;;;6.00;5.25;;;;;23.01;52.82;101473.81;5057191;28;45423;-52
2021/08/11 07:27:49;;;;;;;;;5.00;4.00;;;;;23.02;53.17;101478.16;5057315;28;45602;-53
2021/08/11 07:30:15;;;;;;;;;4.75;4.75;;;;;23.04;53.05;101478.09;5057213;28;46737;-48
2021/08/11 07:32:43;;;;;;;;;4.00;4.00;;;;;23.06;53.08;101482.34;5056978;28;45823;-57
2021/08/11 07:35:10;;;;;;;;;5.00;5.00;;;;;23.07;52.77;101486.72;5056988;28;45413;-54
2021/08/11 07:38:05;;;;;;;;;4.50;4.50;;;;;23.08;52.58;101484.91;5057075;28;46103;-55
2021/08/11 07:40:32;;;;;;;;;5.00;4.25;;;;;23.07;52.80;101492.00;5043774;28;46480;-48
2021/08/11 07:42:58;;;;;;;;;4.50;4.50;;;;;23.09;52.21;101484.84;5056755;28;45891;-48
2021/08/11 07:45:26;;;;;;;;;7.25;5.00;;;;;23.10;52.22;101489.16;5056782;28;45544;-49
2021/08/11 07:47:54;;;;;;;;;4.50;4.50;;;;;23.11;51.98;101487.38;5056960;28;45562;-55
2021/08/11 07:50:21;;;;;;;;;6.00;4.00;;;;;23.13;51.83;101496.09;5056692;28;46706;-49
2021/08/11 07:52:47;;;;;;;;;5.75;4.00;;;;;23.15;51.97;101494.22;5056675;28;45742;-48
2021/08/11 07:55:13;;;;;;;;;8.00;5.75;;;;;23.16;52.23;101491.47;5057088;28;45395;-60
2021/08/11 07:57:39;;;;;;;;;3.75;3.75;;;;;23.17;51.52;101487.91;5057017;28;45569;-56
2021/08/11 08:00:09;;;;;;;;;6.50;5.00;;;;;23.17;51.63;101482.59;5056041;28;45386;-58
2021/08/11 08:02:35;;;;;;;;;4.00;4.00;;;;;23.22;51.78;101484.16;5056335;28;45804;-56
2021/08/11 08:05:03;;;;;;;;;6.00;5.25;;;;;23.22;51.75;101478.84;5056530;28;45360;-51
2021/08/11 08:07:29;;;;;;;;;5.00;5.00;;;;;23.26;51.21;101475.13;5056459;28;45485;-57
2021/08/11 08:09:54;;;;;;;;;3.50;3.50;;;;;23.26;51.61;101468.00;5056208;28;45482;-54
2021/08/11 08:12:20;;;;;;;;;5.75;5.00;;;;;23.29;51.37;101472.31;5055552;28;45864;-53
2021/08/11 08:14:45;;;;;;;;;6.75;6.00;;;;;23.31;51.49;101467.78;5038451;28;45345;-49
2021/08/11 08:17:10;;;;;;;;;3.75;3.75;;;;;23.33;51.27;101465.03;5038643;28;45404;-53
2021/08/11 08:19:36;;;;;;;;;3.00;3.00;;;;;23.33;51.38;101457.94;5056045;28;46060;-51
2021/08/11 08:22:02;;;;;;;;;5.25;5.25;;;;;23.33;51.46;101455.28;5056141;28;45305;-59
2021/08/11 08:24:29;;;;;;;;;7.00;4.75;;;;;23.36;51.36;101459.59;5056424;28;45313;-56
2021/08/11 08:26:54;;;;;;;;;5.00;5.00;;;;;23.36;50.75;101454.28;5056367;28;45461;-53
2021/08/11 08:29:20;;;;;;;;;5.00;4.25;;;;;23.39;50.88;101460.25;5056172;28;45871;-50
2021/08/11 08:31:45;;;;;;;;;4.00;3.50;;;;;23.40;51.04;101467.25;5056565;28;45342;-46
2021/08/11 08:34:10;;;;;;;;;6.50;5.25;;;;;23.41;50.82;101468.97;5056272;28;45410;-57
2021/08/11 08:36:36;;;;;;;;;4.00;3.75;;;;;23.43;50.88;101468.84;5056428;28;45592;-52
2021/08/11 08:39:01;;;;;;;;;5.00;3.50;;;;;23.46;50.23;101473.97;5055942;28;46397;-51
2021/08/11 08:41:27;;;;;;;;;6.25;5.00;;;;;23.47;50.78;101467.75;5055955;28;45256;-55
2021/08/11 08:43:53;;;;;;;;;6.25;4.50;;;;;23.50;50.97;101466.72;5056151;28;45264;-56
2021/08/11 08:46:20;;;;;;;;;6.50;6.00;;;;;23.52;50.58;101465.66;5056651;28;45304;-53
2021/08/11 08:48:46;;;;;;;;;6.00;4.00;;;;;23.55;50.63;101469.91;5038124;28;46339;-54
2021/08/11 08:51:13;;;;;;;;;4.00;4.00;;;;;23.58;50.70;101464.47;5055992;28;45231;-58
2021/08/11 08:53:44;;;;;;;;;6.75;6.00;;;;;23.60;50.92;101465.22;5055965;28;45403;-51
2021/08/11 08:56:10;;;;;;;;;7.00;5.25;;;;;23.61;50.68;101462.47;5055209;28;45540;-52
2021/08/11 08:58:38;;;;;;;;;8.00;5.50;;;;;23.62;50.93;101463.34;5055491;28;46476;-48
2021/08/11 09:01:03;;;;;;;;;6.75;6.00;;;;;23.60;50.72;101465.22;5055907;28;45474;-47
2021/08/11 09:03:28;;;;;;;;;5.25;4.75;;;;;23.61;50.94;101474.88;5055949;28;45300;-53
2021/08/11 09:05:54;;;;;;;;;5.25;5.25;;;;;23.60;50.57;101473.16;5055730;28;45610;-46
2021/08/11 09:08:19;;;;;;;;;6.00;6.00;;;;;23.59;50.93;101471.47;5055950;28;45467;-49
2021/08/11 09:10:45;;;;;;;;;4.50;4.50;;;;;23.59;50.75;101467.00;5055508;28;45348;-50
2021/08/11 09:13:15;;;;;;;;;6.25;5.00;;;;;23.61;50.70;101469.59;5055833;28;45422;-56
2021/08/11 09:15:49;;;;;;;;;6.25;6.00;;;;;23.61;50.64;101469.59;5055990;28;45497;-52
2021/08/11 09:18:17;;;;;;;;;6.50;5.25;;;;;23.58;51.35;101461.81;5055658;28;45335;-48
2021/08/11 09:20:48;;;;;;;;;5.00;5.00;;;;;23.62;51.08;101472.13;5055501;28;45276;-51
2021/08/11 09:23:31;;;;;;;;;5.00;5.00;;;;;23.65;50.98;101459.66;5055570;28;45314;-53
2021/08/11 09:25:59;;;;;;;;;4.25;4.25;;;;;23.66;50.93;101456.91;5059346;28;45360;-54
2021/08/11 09:28:25;;;;;;;;;7.00;6.00;;;;;23.67;50.66;101461.28;5058825;28;46185;-52
2021/08/11 09:30:50;;;;;;;;;5.00;5.00;;;;;23.67;51.06;101463.91;5059355;28;45354;-57
2021/08/11 09:33:21;;;;;;;;;8.00;6.00;;;;;23.69;50.69;101471.78;5059067;28;45368;-57
2021/08/11 09:35:47;;;;;;;;;6.00;6.00;;;;;23.69;50.80;101459.38;5059251;28;45562;-56
2021/08/11 09:38:14;;;;;;;;;6.00;6.00;;;;;23.70;50.93;101455.81;5058585;28;46313;-51
2021/08/11 09:40:42;;;;;;;;;6.00;4.75;;;;;23.71;50.29;101462.81;5058666;28;45447;-47
2021/08/11 09:43:17;;;;;;;;;4.00;4.00;;;;;23.72;50.34;101461.88;5058876;28;45453;-57
2021/08/11 09:45:51;;;;;;;;;5.25;5.25;;;;;23.75;50.15;101460.81;5058894;28;45557;-50
2021/08/11 09:48:24;;;;;;;;;5.50;5.50;;;;;23.76;50.75;101458.06;5058355;28;46414;-53
2021/08/11 09:50:53;;;;;;;;;4.50;4.50;;;;;23.76;50.36;101463.38;5058895;28;45669;-54
2021/08/11 09:53:34;;;;;;;;;7.75;5.00;;;;;23.78;50.71;101460.66;5058979;28;45337;-52
2021/08/11 09:56:02;;;;;;;;;6.00;5.75;;;;;23.77;50.53;101459.78;5058823;28;45289;-50
2021/08/11 09:58:38;;;;;;;;;7.50;6.50;;;;;23.77;50.42;101461.59;5058294;28;47395;-49
2021/08/11 10:01:17;;;;;;;;;6.00;6.00;;;;;23.75;50.86;101466.13;5058523;28;45379;-54
2021/08/11 10:04:02;;;;;;;;;6.00;6.00;;;;;23.75;50.63;101464.34;5058389;28;45304;-51
2021/08/11 10:06:37;;;;;;;;;6.75;6.75;;;;;23.75;50.60;101460.81;5058712;28;45532;-51
2021/08/11 10:09:21;;;;;;;;;7.25;7.25;;;;;23.73;50.60;101460.94;5058233;28;45579;-49
2021/08/11 10:11:52;;;;;;;;;7.00;6.50;;;;;23.73;50.34;101462.69;5058187;28;45755;-50
2021/08/11 10:14:21;;;;;;;;;8.50;5.50;;;;;23.72;50.23;101455.69;5058604;28;45387;-51
2021/08/11 10:16:48;;;;;;;;;5.00;5.00;;;;;23.72;50.62;101455.69;5058279;28;45403;-55
2021/08/11 10:19:14;;;;;;;;;8.75;6.00;;;;;23.71;50.50;101457.50;5058045;28;45495;-54
2021/08/11 10:21:47;;;;;;;;;6.25;5.25;;;;;23.72;50.58;101453.06;5057926;28;45921;-59
2021/08/11 10:24:13;;;;;;;;;6.25;6.25;;;;;23.73;50.57;101449.47;5058322;28;45359;-53
2021/08/11 10:26:38;;;;;;;;;6.75;6.00;;;;;23.73;50.61;101450.34;5058219;28;45368;-52
2021/08/11 10:29:06;;;;;;;;;4.75;4.75;;;;;23.75;50.48;101456.41;5057836;28;45261;-55
2021/08/11 10:31:32;;;;;;;;;6.00;6.00;;;;;23.75;50.39;101458.19;5057890;28;45239;-54
2021/08/11 10:34:00;;;;;;;;;5.25;4.25;;;;;23.76;50.66;101447.47;5057925;28;45297;-51
2021/08/11 10:36:28;;;;;;;;;6.50;6.25;;;;;23.78;50.16;101450.91;5057669;28;45399;-50
2021/08/11 10:38:56;;;;;;;;;8.00;6.25;;;;;23.80;50.18;101453.47;5057782;28;46248;-50
2021/08/11 10:41:31;;;;;;;;;7.25;5.75;;;;;23.83;50.49;101452.44;5058011;28;45757;-55
2021/08/11 10:43:58;;;;;;;;;5.00;4.25;;;;;23.83;50.33;101452.44;5058001;28;45311;-53
2021/08/11 10:46:36;;;;;;;;;5.50;5.50;;;;;23.84;50.21;101452.31;5058155;28;45224;-51
2021/08/11 10:49:07;;;;;;;;;8.75;6.25;;;;;23.87;49.82;101451.28;5057297;28;46253;-48
2021/08/11 10:51:42;;;;;;;;;4.75;4.75;;;;;23.88;49.69;101450.34;5057473;28;45877;-47
2021/08/11 10:54:09;;;;;;;;;12.50;12.50;;;;;23.88;49.61;101453.00;5057675;28;45250;-51
2021/08/11 10:56:50;;;;;;;;;14.00;10.75;;;;;23.89;49.77;101446.75;5057750;28;45620;-52
2021/08/11 10:59:21;;;;;;;;;7.75;7.75;;;;;23.89;49.49;101449.41;5057301;28;46460;-54
2021/08/11 11:01:51;;;;;;;;;10.00;10.00;;;;;23.87;49.21;101443.34;5057423;28;45753;-58
2021/08/11 11:04:46;;;;;;;;;9.75;9.50;;;;;23.89;49.55;101446.75;5057427;28;45312;-51
2021/08/11 11:07:16;;;;;;;;;11.00;10.00;;;;;23.89;49.67;101439.69;5039541;28;45538;-49
2021/08/11 11:09:47;;;;;;;;;8.50;8.25;;;;;23.89;49.49;101437.03;5057163;28;46439;-52
2021/08/11 11:12:15;;;;;;;;;9.75;9.50;;;;;23.92;49.22;101438.63;5057115;28;45253;-54
2021/08/11 11:14:56;;;;;;;;;9.00;9.00;;;;;23.92;49.60;101431.53;5057276;28;45420;-59
2021/08/11 11:17:29;;;;;;;;;10.00;9.25;;;;;23.93;49.56;101427.94;5057836;28;45313;-59
2021/08/11 11:20:03;;;;;;;;;8.50;7.50;;;;;23.93;49.53;101435.88;5057310;28;45551;-57
2021/08/11 11:22:37;;;;;;;;;7.00;7.00;;;;;23.95;49.56;101430.56;5057048;28;45806;-57
2021/08/11 11:25:07;;;;;;;;;9.00;8.75;;;;;23.97;49.23;101427.78;5057179;28;45312;-49
2021/08/11 11:27:39;;;;;;;;;7.25;7.25;;;;;23.98;49.38;101419.75;5057450;28;45321;-48